sensor_id;sensor_type;location;lat;lon;timestamp;temperature;humidity
33943;DHT22;66763;47.856;17.462;2023-03-30T00:00:37;20.80;40.80
33943;DHT22;66763;47.856;17.462;2023-03-30T00:03:03;20.80;40.80
33943;DHT22;66763;47.856;17.462;2023-03-30T00:05:29;20.80;40.80
33943;DHT22;66763;47.856;17.462;2023-03-30T00:07:55;20.80;40.90
33943;DHT22;66763;47.856;17.462;2023-03-30T00:10:20;20.70;40.80
33943;DHT22;66763;47.856;17.462;2023-03-30T00:12:47;20.70;40.90
33943;DHT22;66763;47.856;17.462;2023-03-30T00:15:15;20.70;41.00
33943;DHT22;66763;47.856;17.462;2023-03-30T00:17:41;20.70;40.80
33943;DHT22;66763;47.856;17.462;2023-03-30T00:20:07;20.60;40.90
33943;DHT22;66763;47.856;17.462;2023-03-30T00:22:39;20.70;40.90
33943;DHT22;66763;47.856;17.462;2023-03-30T00:25:06;20.70;40.90
33943;DHT22;66763;47.856;17.462;2023-03-30T00:27:33;20.60;40.90
33943;DHT22;66763;47.856;17.462;2023-03-30T00:29:58;20.60;41.00
33943;DHT22;66763;47.856;17.462;2023-03-30T00:32:24;20.60;41.00
33943;DHT22;66763;47.856;17.462;2023-03-30T00:34:49;20.60;40.90
33943;DHT22;66763;47.856;17.462;2023-03-30T00:37:15;20.50;41.00
33943;DHT22;66763;47.856;17.462;2023-03-30T00:39:40;20.60;41.00
33943;DHT22;66763;47.856;17.462;2023-03-30T00:42:08;20.50;41.00
33943;DHT22;66763;47.856;17.462;2023-03-30T00:47:19;20.50;41.10
33943;DHT22;66763;47.856;17.462;2023-03-30T00:49:45;20.40;40.90
33943;DHT22;66763;47.856;17.462;2023-03-30T00:52:11;20.40;41.00
33943;DHT22;66763;47.856;17.462;2023-03-30T00:54:37;20.40;41.00
33943;DHT22;66763;47.856;17.462;2023-03-30T00:57:03;20.40;41.00
33943;DHT22;66763;47.856;17.462;2023-03-30T00:59:28;20.40;41.00
33943;DHT22;66763;47.856;17.462;2023-03-30T01:01:54;20.40;41.00
33943;DHT22;66763;47.856;17.462;2023-03-30T01:04:20;20.40;41.00
33943;DHT22;66763;47.856;17.462;2023-03-30T01:06:45;20.40;41.00
33943;DHT22;66763;47.856;17.462;2023-03-30T01:09:11;20.40;41.10
33943;DHT22;66763;47.856;17.462;2023-03-30T01:11:37;20.30;41.10
33943;DHT22;66763;47.856;17.462;2023-03-30T01:14:04;20.30;41.10
33943;DHT22;66763;47.856;17.462;2023-03-30T01:24:55;20.30;41.20
33943;DHT22;66763;47.856;17.462;2023-03-30T01:32:42;20.20;41.20
33943;DHT22;66763;47.856;17.462;2023-03-30T01:45:36;20.20;41.10
33943;DHT22;66763;47.856;17.462;2023-03-30T01:48:07;20.20;41.10
33943;DHT22;66763;47.856;17.462;2023-03-30T01:50:46;20.40;41.10
33943;DHT22;66763;47.856;17.462;2023-03-30T01:53:17;20.50;41.00
33943;DHT22;66763;47.856;17.462;2023-03-30T01:58:15;20.70;40.90
33943;DHT22;66763;47.856;17.462;2023-03-30T02:00:43;20.80;40.80
33943;DHT22;66763;47.856;17.462;2023-03-30T02:03:13;20.90;40.90
33943;DHT22;66763;47.856;17.462;2023-03-30T02:05:41;21.00;40.80
33943;DHT22;66763;47.856;17.462;2023-03-30T02:08:09;21.10;40.70
33943;DHT22;66763;47.856;17.462;2023-03-30T02:10:35;21.10;40.70
33943;DHT22;66763;47.856;17.462;2023-03-30T02:13:02;21.10;40.60
33943;DHT22;66763;47.856;17.462;2023-03-30T02:15:32;21.20;40.60
33943;DHT22;66763;47.856;17.462;2023-03-30T02:17:58;21.30;40.70
33943;DHT22;66763;47.856;17.462;2023-03-30T02:20:24;21.30;40.60
33943;DHT22;66763;47.856;17.462;2023-03-30T02:22:49;21.30;40.50
33943;DHT22;66763;47.856;17.462;2023-03-30T02:25:15;21.40;40.60
33943;DHT22;66763;47.856;17.462;2023-03-30T02:27:41;21.40;40.50
33943;DHT22;66763;47.856;17.462;2023-03-30T02:30:07;21.40;40.50
33943;DHT22;66763;47.856;17.462;2023-03-30T02:32:43;21.50;40.50
33943;DHT22;66763;47.856;17.462;2023-03-30T02:40:27;21.50;40.40
33943;DHT22;66763;47.856;17.462;2023-03-30T02:45:36;21.50;40.40
33943;DHT22;66763;47.856;17.462;2023-03-30T02:48:22;21.50;40.40
33943;DHT22;66763;47.856;17.462;2023-03-30T02:53:30;21.50;40.50
33943;DHT22;66763;47.856;17.462;2023-03-30T02:58:23;21.40;41.10
33943;DHT22;66763;47.856;17.462;2023-03-30T03:00:53;21.40;40.50
33943;DHT22;66763;47.856;17.462;2023-03-30T03:03:22;21.40;40.50
33943;DHT22;66763;47.856;17.462;2023-03-30T03:05:52;21.40;40.60
33943;DHT22;66763;47.856;17.462;2023-03-30T03:08:19;21.40;40.50
33943;DHT22;66763;47.856;17.462;2023-03-30T03:10:45;21.30;40.50
33943;DHT22;66763;47.856;17.462;2023-03-30T03:13:11;21.30;40.60
33943;DHT22;66763;47.856;17.462;2023-03-30T03:15:38;21.30;40.60
33943;DHT22;66763;47.856;17.462;2023-03-30T03:18:04;21.30;40.70
33943;DHT22;66763;47.856;17.462;2023-03-30T03:20:30;21.20;40.70
33943;DHT22;66763;47.856;17.462;2023-03-30T03:22:56;21.20;40.70
33943;DHT22;66763;47.856;17.462;2023-03-30T03:25:21;21.20;40.70
33943;DHT22;66763;47.856;17.462;2023-03-30T03:27:46;21.20;40.80
33943;DHT22;66763;47.856;17.462;2023-03-30T03:30:12;21.10;40.80
33943;DHT22;66763;47.856;17.462;2023-03-30T03:32:38;21.10;40.80
33943;DHT22;66763;47.856;17.462;2023-03-30T03:35:03;21.10;40.90
33943;DHT22;66763;47.856;17.462;2023-03-30T03:37:29;21.00;40.80
33943;DHT22;66763;47.856;17.462;2023-03-30T03:39:54;21.00;40.90
33943;DHT22;66763;47.856;17.462;2023-03-30T03:42:20;21.00;41.00
33943;DHT22;66763;47.856;17.462;2023-03-30T03:44:46;20.90;41.00
33943;DHT22;66763;47.856;17.462;2023-03-30T03:47:11;20.90;41.00
33943;DHT22;66763;47.856;17.462;2023-03-30T03:49:38;20.90;41.00
33943;DHT22;66763;47.856;17.462;2023-03-30T03:52:03;20.90;41.00
33943;DHT22;66763;47.856;17.462;2023-03-30T03:54:29;20.90;41.10
33943;DHT22;66763;47.856;17.462;2023-03-30T03:56:54;20.80;41.00
33943;DHT22;66763;47.856;17.462;2023-03-30T03:59:20;20.80;41.10
33943;DHT22;66763;47.856;17.462;2023-03-30T04:01:46;20.80;41.10
33943;DHT22;66763;47.856;17.462;2023-03-30T04:04:11;20.80;41.10
33943;DHT22;66763;47.856;17.462;2023-03-30T04:06:37;20.80;41.10
33943;DHT22;66763;47.856;17.462;2023-03-30T04:09:02;20.80;41.10
33943;DHT22;66763;47.856;17.462;2023-03-30T04:11:28;20.70;41.20
33943;DHT22;66763;47.856;17.462;2023-03-30T04:13:53;20.70;41.20
33943;DHT22;66763;47.856;17.462;2023-03-30T04:16:19;20.70;41.20
33943;DHT22;66763;47.856;17.462;2023-03-30T04:18:44;20.60;41.10
33943;DHT22;66763;47.856;17.462;2023-03-30T04:21:10;20.60;41.20
33943;DHT22;66763;47.856;17.462;2023-03-30T04:23:37;20.60;41.20
33943;DHT22;66763;47.856;17.462;2023-03-30T04:26:05;20.60;41.30
33943;DHT22;66763;47.856;17.462;2023-03-30T04:28:32;20.60;41.30
33943;DHT22;66763;47.856;17.462;2023-03-30T04:30:58;20.50;41.30
33943;DHT22;66763;47.856;17.462;2023-03-30T04:33:24;20.50;41.30
33943;DHT22;66763;47.856;17.462;2023-03-30T04:35:50;20.50;41.40
33943;DHT22;66763;47.856;17.462;2023-03-30T04:38:15;20.40;41.30
33943;DHT22;66763;47.856;17.462;2023-03-30T04:40:47;20.40;41.30
33943;DHT22;66763;47.856;17.462;2023-03-30T04:43:12;20.40;41.30
33943;DHT22;66763;47.856;17.462;2023-03-30T04:45:38;20.40;41.40
33943;DHT22;66763;47.856;17.462;2023-03-30T04:48:04;20.30;41.30
33943;DHT22;66763;47.856;17.462;2023-03-30T04:50:29;20.30;41.40
33943;DHT22;66763;47.856;17.462;2023-03-30T04:52:55;20.30;41.40
33943;DHT22;66763;47.856;17.462;2023-03-30T04:55:20;20.30;41.50
33943;DHT22;66763;47.856;17.462;2023-03-30T04:57:46;20.20;41.50
33943;DHT22;66763;47.856;17.462;2023-03-30T05:00:12;20.20;41.50
33943;DHT22;66763;47.856;17.462;2023-03-30T05:02:38;20.20;41.50
33943;DHT22;66763;47.856;17.462;2023-03-30T05:05:03;20.20;41.60
33943;DHT22;66763;47.856;17.462;2023-03-30T05:07:29;20.20;41.50
33943;DHT22;66763;47.856;17.462;2023-03-30T05:09:54;20.20;41.60
33943;DHT22;66763;47.856;17.462;2023-03-30T05:12:20;20.20;41.60
33943;DHT22;66763;47.856;17.462;2023-03-30T05:14:45;20.20;41.60
33943;DHT22;66763;47.856;17.462;2023-03-30T05:17:11;20.10;41.60
33943;DHT22;66763;47.856;17.462;2023-03-30T05:19:36;20.10;41.60
33943;DHT22;66763;47.856;17.462;2023-03-30T05:22:02;20.10;41.60
33943;DHT22;66763;47.856;17.462;2023-03-30T05:24:27;20.10;41.60
33943;DHT22;66763;47.856;17.462;2023-03-30T05:26:53;20.10;41.50
33943;DHT22;66763;47.856;17.462;2023-03-30T05:29:18;20.10;41.60
33943;DHT22;66763;47.856;17.462;2023-03-30T05:31:44;20.10;41.60
33943;DHT22;66763;47.856;17.462;2023-03-30T05:34:09;20.10;41.70
33943;DHT22;66763;47.856;17.462;2023-03-30T05:36:35;20.20;41.60
33943;DHT22;66763;47.856;17.462;2023-03-30T05:39:01;20.30;41.60
33943;DHT22;66763;47.856;17.462;2023-03-30T05:41:29;20.40;41.50
33943;DHT22;66763;47.856;17.462;2023-03-30T05:43:55;20.50;41.50
33943;DHT22;66763;47.856;17.462;2023-03-30T05:46:21;20.60;41.40
33943;DHT22;66763;47.856;17.462;2023-03-30T05:48:47;20.70;41.40
33943;DHT22;66763;47.856;17.462;2023-03-30T05:51:13;20.80;41.40
33943;DHT22;66763;47.856;17.462;2023-03-30T05:53:38;20.80;41.30
33943;DHT22;66763;47.856;17.462;2023-03-30T05:56:04;20.90;41.30
33943;DHT22;66763;47.856;17.462;2023-03-30T05:58:29;21.00;41.30
33943;DHT22;66763;47.856;17.462;2023-03-30T06:00:58;21.00;41.20
33943;DHT22;66763;47.856;17.462;2023-03-30T06:03:23;21.10;41.20
33943;DHT22;66763;47.856;17.462;2023-03-30T06:05:50;21.10;41.20
33943;DHT22;66763;47.856;17.462;2023-03-30T06:08:17;21.20;41.20
33943;DHT22;66763;47.856;17.462;2023-03-30T06:10:50;21.20;41.10
33943;DHT22;66763;47.856;17.462;2023-03-30T06:13:16;21.20;41.10
33943;DHT22;66763;47.856;17.462;2023-03-30T06:15:43;21.30;41.20
33943;DHT22;66763;47.856;17.462;2023-03-30T06:18:08;21.30;41.10
33943;DHT22;66763;47.856;17.462;2023-03-30T06:20:34;21.40;41.20
33943;DHT22;66763;47.856;17.462;2023-03-30T06:23:00;21.40;41.10
33943;DHT22;66763;47.856;17.462;2023-03-30T06:25:26;21.40;41.10
33943;DHT22;66763;47.856;17.462;2023-03-30T06:27:51;21.40;41.10
33943;DHT22;66763;47.856;17.462;2023-03-30T06:30:17;21.40;41.10
33943;DHT22;66763;47.856;17.462;2023-03-30T06:32:42;21.40;41.00
33943;DHT22;66763;47.856;17.462;2023-03-30T06:35:08;21.40;41.00
33943;DHT22;66763;47.856;17.462;2023-03-30T06:37:34;21.40;41.00
33943;DHT22;66763;47.856;17.462;2023-03-30T06:40:02;21.40;41.10
33943;DHT22;66763;47.856;17.462;2023-03-30T06:42:32;21.40;41.10
33943;DHT22;66763;47.856;17.462;2023-03-30T06:44:58;21.40;41.10
33943;DHT22;66763;47.856;17.462;2023-03-30T06:47:23;21.40;41.20
33943;DHT22;66763;47.856;17.462;2023-03-30T06:49:49;21.40;41.20
33943;DHT22;66763;47.856;17.462;2023-03-30T06:52:14;21.30;41.20
33943;DHT22;66763;47.856;17.462;2023-03-30T06:54:40;21.30;41.20
33943;DHT22;66763;47.856;17.462;2023-03-30T06:57:06;21.30;41.20
33943;DHT22;66763;47.856;17.462;2023-03-30T06:59:32;21.30;41.30
33943;DHT22;66763;47.856;17.462;2023-03-30T07:01:58;21.20;41.30
33943;DHT22;66763;47.856;17.462;2023-03-30T07:04:23;21.20;41.40
33943;DHT22;66763;47.856;17.462;2023-03-30T07:06:49;21.20;41.40
33943;DHT22;66763;47.856;17.462;2023-03-30T07:09:14;21.10;41.30
33943;DHT22;66763;47.856;17.462;2023-03-30T07:11:40;21.10;41.50
33943;DHT22;66763;47.856;17.462;2023-03-30T07:14:05;21.10;41.30
33943;DHT22;66763;47.856;17.462;2023-03-30T07:16:31;21.10;40.50
33943;DHT22;66763;47.856;17.462;2023-03-30T07:18:57;21.00;40.10
33943;DHT22;66763;47.856;17.462;2023-03-30T07:21:22;20.90;40.20
33943;DHT22;66763;47.856;17.462;2023-03-30T07:23:48;20.90;40.90
33943;DHT22;66763;47.856;17.462;2023-03-30T07:26:15;20.90;41.00
33943;DHT22;66763;47.856;17.462;2023-03-30T07:28:41;20.80;42.10
33943;DHT22;66763;47.856;17.462;2023-03-30T07:31:07;20.90;41.70
33943;DHT22;66763;47.856;17.462;2023-03-30T07:33:33;21.00;41.20
33943;DHT22;66763;47.856;17.462;2023-03-30T07:35:58;21.00;41.10
33943;DHT22;66763;47.856;17.462;2023-03-30T07:38:24;21.10;41.10
33943;DHT22;66763;47.856;17.462;2023-03-30T07:40:49;21.20;41.10
33943;DHT22;66763;47.856;17.462;2023-03-30T07:43:15;21.30;41.40
33943;DHT22;66763;47.856;17.462;2023-03-30T07:45:41;21.30;41.30
33943;DHT22;66763;47.856;17.462;2023-03-30T07:48:07;21.40;41.20
33943;DHT22;66763;47.856;17.462;2023-03-30T07:50:32;21.40;41.10
33943;DHT22;66763;47.856;17.462;2023-03-30T07:52:58;21.50;41.30
33943;DHT22;66763;47.856;17.462;2023-03-30T07:55:23;21.60;41.30
33943;DHT22;66763;47.856;17.462;2023-03-30T07:57:49;21.50;41.00
33943;DHT22;66763;47.856;17.462;2023-03-30T08:00:14;21.60;40.90
33943;DHT22;66763;47.856;17.462;2023-03-30T08:02:44;21.60;40.70
33943;DHT22;66763;47.856;17.462;2023-03-30T08:05:10;21.60;40.60
33943;DHT22;66763;47.856;17.462;2023-03-30T08:07:36;21.70;40.70
33943;DHT22;66763;47.856;17.462;2023-03-30T08:10:02;21.60;40.50
33943;DHT22;66763;47.856;17.462;2023-03-30T08:12:27;21.60;39.30
33943;DHT22;66763;47.856;17.462;2023-03-30T08:14:53;21.60;39.20
33943;DHT22;66763;47.856;17.462;2023-03-30T08:17:20;21.60;39.10
33943;DHT22;66763;47.856;17.462;2023-03-30T08:19:46;21.60;39.00
33943;DHT22;66763;47.856;17.462;2023-03-30T08:22:12;21.70;39.40
33943;DHT22;66763;47.856;17.462;2023-03-30T08:24:38;21.70;38.90
33943;DHT22;66763;47.856;17.462;2023-03-30T08:27:03;21.70;38.80
33943;DHT22;66763;47.856;17.462;2023-03-30T08:29:29;21.80;39.10
33943;DHT22;66763;47.856;17.462;2023-03-30T08:31:55;21.80;39.10
33943;DHT22;66763;47.856;17.462;2023-03-30T08:34:21;21.90;39.40
33943;DHT22;66763;47.856;17.462;2023-03-30T08:36:47;21.80;39.50
33943;DHT22;66763;47.856;17.462;2023-03-30T08:39:12;21.90;39.70
33943;DHT22;66763;47.856;17.462;2023-03-30T08:44:38;21.90;40.00
33943;DHT22;66763;47.856;17.462;2023-03-30T08:47:07;21.90;40.00
33943;DHT22;66763;47.856;17.462;2023-03-30T08:49:34;21.90;39.90
33943;DHT22;66763;47.856;17.462;2023-03-30T08:52:04;21.90;40.00
33943;DHT22;66763;47.856;17.462;2023-03-30T08:54:29;21.90;40.00
33943;DHT22;66763;47.856;17.462;2023-03-30T08:57:14;21.90;40.20
33943;DHT22;66763;47.856;17.462;2023-03-30T08:59:50;21.90;40.20
33943;DHT22;66763;47.856;17.462;2023-03-30T09:07:22;21.80;40.10
33943;DHT22;66763;47.856;17.462;2023-03-30T09:09:48;21.70;39.90
33943;DHT22;66763;47.856;17.462;2023-03-30T09:14:53;21.60;39.90
33943;DHT22;66763;47.856;17.462;2023-03-30T09:17:22;21.60;40.00
33943;DHT22;66763;47.856;17.462;2023-03-30T09:20:05;21.60;40.00
33943;DHT22;66763;47.856;17.462;2023-03-30T09:22:34;21.60;40.20
33943;DHT22;66763;47.856;17.462;2023-03-30T09:25:01;21.60;40.60
33943;DHT22;66763;47.856;17.462;2023-03-30T09:27:33;21.60;40.70
33943;DHT22;66763;47.856;17.462;2023-03-30T09:30:08;21.60;40.70
33943;DHT22;66763;47.856;17.462;2023-03-30T09:32:40;21.50;40.80
33943;DHT22;66763;47.856;17.462;2023-03-30T09:35:17;21.50;39.00
33943;DHT22;66763;47.856;17.462;2023-03-30T09:37:45;21.40;37.90
33943;DHT22;66763;47.856;17.462;2023-03-30T09:42:45;21.30;37.60
33943;DHT22;66763;47.856;17.462;2023-03-30T09:45:16;21.20;37.00
33943;DHT22;66763;47.856;17.462;2023-03-30T09:47:44;21.10;37.60
33943;DHT22;66763;47.856;17.462;2023-03-30T09:50:18;21.10;38.30
33943;DHT22;66763;47.856;17.462;2023-03-30T09:53:01;21.00;38.10
33943;DHT22;66763;47.856;17.462;2023-03-30T09:55:31;21.00;38.10
33943;DHT22;66763;47.856;17.462;2023-03-30T09:58:13;21.00;38.70
33943;DHT22;66763;47.856;17.462;2023-03-30T10:00:42;21.00;38.80
33943;DHT22;66763;47.856;17.462;2023-03-30T10:03:12;21.00;38.90
33943;DHT22;66763;47.856;17.462;2023-03-30T10:05:42;21.00;39.10
33943;DHT22;66763;47.856;17.462;2023-03-30T10:08:20;21.10;39.50
33943;DHT22;66763;47.856;17.462;2023-03-30T10:10:52;21.00;39.50
33943;DHT22;66763;47.856;17.462;2023-03-30T10:13:17;21.00;40.00
33943;DHT22;66763;47.856;17.462;2023-03-30T10:15:46;21.10;40.50
33943;DHT22;66763;47.856;17.462;2023-03-30T10:21:18;21.10;43.10
33943;DHT22;66763;47.856;17.462;2023-03-30T10:23:57;21.20;43.30
33943;DHT22;66763;47.856;17.462;2023-03-30T10:26:25;21.20;44.80
33943;DHT22;66763;47.856;17.462;2023-03-30T10:28:53;21.20;46.10
33943;DHT22;66763;47.856;17.462;2023-03-30T10:31:19;21.20;47.00
33943;DHT22;66763;47.856;17.462;2023-03-30T10:33:46;21.20;45.90
33943;DHT22;66763;47.856;17.462;2023-03-30T10:36:12;21.20;46.80
33943;DHT22;66763;47.856;17.462;2023-03-30T10:38:39;21.20;47.70
33943;DHT22;66763;47.856;17.462;2023-03-30T10:41:14;21.20;48.40
33943;DHT22;66763;47.856;17.462;2023-03-30T10:43:41;21.20;48.60
33943;DHT22;66763;47.856;17.462;2023-03-30T10:46:17;21.20;48.40
33943;DHT22;66763;47.856;17.462;2023-03-30T10:51:12;21.20;48.50
33943;DHT22;66763;47.856;17.462;2023-03-30T10:53:47;21.20;48.00
33943;DHT22;66763;47.856;17.462;2023-03-30T10:56:18;21.20;47.80
33943;DHT22;66763;47.856;17.462;2023-03-30T10:58:53;21.20;47.60
33943;DHT22;66763;47.856;17.462;2023-03-30T11:04:02;21.10;47.20
33943;DHT22;66763;47.856;17.462;2023-03-30T11:06:34;21.10;46.80
33943;DHT22;66763;47.856;17.462;2023-03-30T11:09:03;21.20;46.90
33943;DHT22;66763;47.856;17.462;2023-03-30T11:11:37;21.10;46.80
33943;DHT22;66763;47.856;17.462;2023-03-30T11:14:08;21.10;46.60
33943;DHT22;66763;47.856;17.462;2023-03-30T11:16:50;21.10;46.30
33943;DHT22;66763;47.856;17.462;2023-03-30T11:19:19;21.10;46.20
33943;DHT22;66763;47.856;17.462;2023-03-30T11:24:31;21.10;45.50
33943;DHT22;66763;47.856;17.462;2023-03-30T11:27:00;21.10;46.20
33943;DHT22;66763;47.856;17.462;2023-03-30T11:32:25;21.10;45.40
33943;DHT22;66763;47.856;17.462;2023-03-30T11:37:37;21.30;45.10
33943;DHT22;66763;47.856;17.462;2023-03-30T11:40:12;21.30;44.90
33943;DHT22;66763;47.856;17.462;2023-03-30T11:42:40;21.40;44.80
33943;DHT22;66763;47.856;17.462;2023-03-30T11:50:33;21.60;44.60
33943;DHT22;66763;47.856;17.462;2023-03-30T11:53:05;21.70;44.50
33943;DHT22;66763;47.856;17.462;2023-03-30T11:55:52;21.80;44.50
33943;DHT22;66763;47.856;17.462;2023-03-30T11:58:36;21.80;44.40
33943;DHT22;66763;47.856;17.462;2023-03-30T12:06:05;22.00;44.40
33943;DHT22;66763;47.856;17.462;2023-03-30T12:08:51;22.00;44.20
33943;DHT22;66763;47.856;17.462;2023-03-30T12:14:13;22.10;44.20
33943;DHT22;66763;47.856;17.462;2023-03-30T12:16:44;22.10;44.10
33943;DHT22;66763;47.856;17.462;2023-03-30T12:24:28;22.20;43.90
33943;DHT22;66763;47.856;17.462;2023-03-30T12:26:57;22.20;43.80
33943;DHT22;66763;47.856;17.462;2023-03-30T12:29:23;22.20;43.70
33943;DHT22;66763;47.856;17.462;2023-03-30T12:34:17;22.30;43.90
33943;DHT22;66763;47.856;17.462;2023-03-30T12:36:47;22.40;44.50
33943;DHT22;66763;47.856;17.462;2023-03-30T12:39:18;22.40;43.90
33943;DHT22;66763;47.856;17.462;2023-03-30T12:41:47;22.40;44.00
33943;DHT22;66763;47.856;17.462;2023-03-30T12:44:18;22.50;44.40
33943;DHT22;66763;47.856;17.462;2023-03-30T12:57:11;22.50;44.70
33943;DHT22;66763;47.856;17.462;2023-03-30T12:59:46;22.60;44.90
33943;DHT22;66763;47.856;17.462;2023-03-30T13:04:43;22.60;44.90
33943;DHT22;66763;47.856;17.462;2023-03-30T13:07:23;22.60;44.80
33943;DHT22;66763;47.856;17.462;2023-03-30T13:09:51;22.70;44.90
33943;DHT22;66763;47.856;17.462;2023-03-30T13:12:23;22.60;44.80
33943;DHT22;66763;47.856;17.462;2023-03-30T13:14:55;22.70;44.80
33943;DHT22;66763;47.856;17.462;2023-03-30T13:17:22;22.70;44.80
33943;DHT22;66763;47.856;17.462;2023-03-30T13:22:34;22.70;44.80
33943;DHT22;66763;47.856;17.462;2023-03-30T13:25:02;22.70;44.70
33943;DHT22;66763;47.856;17.462;2023-03-30T13:27:46;22.70;44.70
33943;DHT22;66763;47.856;17.462;2023-03-30T13:30:14;22.80;44.70
33943;DHT22;66763;47.856;17.462;2023-03-30T13:32:44;22.70;44.60
33943;DHT22;66763;47.856;17.462;2023-03-30T13:47:59;22.80;44.40
33943;DHT22;66763;47.856;17.462;2023-03-30T13:50:29;22.80;44.30
33943;DHT22;66763;47.856;17.462;2023-03-30T13:52:59;22.80;44.20
33943;DHT22;66763;47.856;17.462;2023-03-30T13:55:38;22.80;44.00
33943;DHT22;66763;47.856;17.462;2023-03-30T13:58:10;22.80;44.00
33943;DHT22;66763;47.856;17.462;2023-03-30T14:00:38;22.80;43.80
33943;DHT22;66763;47.856;17.462;2023-03-30T14:05:56;22.90;43.70
33943;DHT22;66763;47.856;17.462;2023-03-30T14:08:22;22.90;43.80
33943;DHT22;66763;47.856;17.462;2023-03-30T14:10:48;22.90;43.80
33943;DHT22;66763;47.856;17.462;2023-03-30T14:13:15;22.90;43.90
33943;DHT22;66763;47.856;17.462;2023-03-30T14:15:41;23.00;44.00
33943;DHT22;66763;47.856;17.462;2023-03-30T14:18:08;23.00;44.00
33943;DHT22;66763;47.856;17.462;2023-03-30T14:23:10;23.10;44.10
33943;DHT22;66763;47.856;17.462;2023-03-30T14:25:38;23.00;44.00
33943;DHT22;66763;47.856;17.462;2023-03-30T14:28:11;23.10;44.20
33943;DHT22;66763;47.856;17.462;2023-03-30T14:30:37;23.10;44.10
33943;DHT22;66763;47.856;17.462;2023-03-30T14:33:03;23.10;44.10
33943;DHT22;66763;47.856;17.462;2023-03-30T14:35:29;23.10;44.10
33943;DHT22;66763;47.856;17.462;2023-03-30T14:37:55;23.10;44.10
33943;DHT22;66763;47.856;17.462;2023-03-30T14:40:20;23.00;44.00
33943;DHT22;66763;47.856;17.462;2023-03-30T14:42:47;23.00;44.10
33943;DHT22;66763;47.856;17.462;2023-03-30T14:45:15;23.00;44.10
33943;DHT22;66763;47.856;17.462;2023-03-30T14:47:41;23.00;44.20
33943;DHT22;66763;47.856;17.462;2023-03-30T14:50:07;23.00;44.30
33943;DHT22;66763;47.856;17.462;2023-03-30T14:52:40;22.90;44.50
33943;DHT22;66763;47.856;17.462;2023-03-30T14:55:06;22.90;44.90
33943;DHT22;66763;47.856;17.462;2023-03-30T14:57:36;22.90;45.00
33943;DHT22;66763;47.856;17.462;2023-03-30T15:00:03;22.80;45.00
33943;DHT22;66763;47.856;17.462;2023-03-30T15:02:41;22.80;45.20
33943;DHT22;66763;47.856;17.462;2023-03-30T15:05:07;22.80;45.50
33943;DHT22;66763;47.856;17.462;2023-03-30T15:07:34;22.70;45.40
33943;DHT22;66763;47.856;17.462;2023-03-30T15:10:00;22.70;45.80
33943;DHT22;66763;47.856;17.462;2023-03-30T15:12:31;22.70;45.90
33943;DHT22;66763;47.856;17.462;2023-03-30T15:14:59;22.60;45.80
33943;DHT22;66763;47.856;17.462;2023-03-30T15:17:25;22.70;46.50
33943;DHT22;66763;47.856;17.462;2023-03-30T15:19:51;22.60;46.50
33943;DHT22;66763;47.856;17.462;2023-03-30T15:24:43;22.60;45.70
33943;DHT22;66763;47.856;17.462;2023-03-30T15:27:10;22.50;45.30
33943;DHT22;66763;47.856;17.462;2023-03-30T15:29:38;22.50;45.20
33943;DHT22;66763;47.856;17.462;2023-03-30T15:32:18;22.40;45.10
33943;DHT22;66763;47.856;17.462;2023-03-30T15:35:00;22.40;45.10
33943;DHT22;66763;47.856;17.462;2023-03-30T15:37:29;22.30;45.30
33943;DHT22;66763;47.856;17.462;2023-03-30T15:39:55;22.20;45.40
33943;DHT22;66763;47.856;17.462;2023-03-30T15:42:38;22.20;45.30
33943;DHT22;66763;47.856;17.462;2023-03-30T15:45:10;22.20;45.40
33943;DHT22;66763;47.856;17.462;2023-03-30T15:47:36;22.20;45.90
33943;DHT22;66763;47.856;17.462;2023-03-30T15:50:02;22.20;46.00
33943;DHT22;66763;47.856;17.462;2023-03-30T15:52:32;22.20;45.60
33943;DHT22;66763;47.856;17.462;2023-03-30T15:55:01;22.20;45.00
33943;DHT22;66763;47.856;17.462;2023-03-30T15:57:28;22.10;45.00
33943;DHT22;66763;47.856;17.462;2023-03-30T15:59:55;22.00;44.90
33943;DHT22;66763;47.856;17.462;2023-03-30T16:04:55;22.00;44.90
33943;DHT22;66763;47.856;17.462;2023-03-30T16:07:22;22.00;45.00
33943;DHT22;66763;47.856;17.462;2023-03-30T16:09:49;22.00;45.30
33943;DHT22;66763;47.856;17.462;2023-03-30T16:12:35;22.10;45.30
33943;DHT22;66763;47.856;17.462;2023-03-30T16:15:00;22.20;45.30
33943;DHT22;66763;47.856;17.462;2023-03-30T16:17:26;22.30;45.20
33943;DHT22;66763;47.856;17.462;2023-03-30T16:19:51;22.40;45.40
33943;DHT22;66763;47.856;17.462;2023-03-30T16:22:17;22.50;45.30
33943;DHT22;66763;47.856;17.462;2023-03-30T16:24:42;22.60;45.10
33943;DHT22;66763;47.856;17.462;2023-03-30T16:27:11;22.70;45.00
33943;DHT22;66763;47.856;17.462;2023-03-30T16:29:37;22.70;45.00
33943;DHT22;66763;47.856;17.462;2023-03-30T16:32:02;22.80;44.80
33943;DHT22;66763;47.856;17.462;2023-03-30T16:34:28;22.80;44.70
33943;DHT22;66763;47.856;17.462;2023-03-30T16:36:53;22.90;44.70
33943;DHT22;66763;47.856;17.462;2023-03-30T16:39:20;23.00;44.60
33943;DHT22;66763;47.856;17.462;2023-03-30T16:41:46;23.00;44.50
33943;DHT22;66763;47.856;17.462;2023-03-30T16:44:12;23.10;44.60
33943;DHT22;66763;47.856;17.462;2023-03-30T16:46:38;23.10;44.60
33943;DHT22;66763;47.856;17.462;2023-03-30T16:49:05;23.10;44.50
33943;DHT22;66763;47.856;17.462;2023-03-30T16:51:31;23.10;44.50
33943;DHT22;66763;47.856;17.462;2023-03-30T16:53:56;23.20;44.60
33943;DHT22;66763;47.856;17.462;2023-03-30T16:56:22;23.20;44.60
33943;DHT22;66763;47.856;17.462;2023-03-30T16:58:47;23.30;44.60
33943;DHT22;66763;47.856;17.462;2023-03-30T17:01:13;23.30;44.50
33943;DHT22;66763;47.856;17.462;2023-03-30T17:03:40;23.40;44.50
33943;DHT22;66763;47.856;17.462;2023-03-30T17:06:06;23.40;44.50
33943;DHT22;66763;47.856;17.462;2023-03-30T17:08:31;23.50;44.50
33943;DHT22;66763;47.856;17.462;2023-03-30T17:10:58;23.50;44.40
33943;DHT22;66763;47.856;17.462;2023-03-30T17:13:25;23.60;44.50
33943;DHT22;66763;47.856;17.462;2023-03-30T17:15:51;23.60;44.50
33943;DHT22;66763;47.856;17.462;2023-03-30T17:18:18;23.60;44.40
33943;DHT22;66763;47.856;17.462;2023-03-30T17:20:45;23.60;44.50
33943;DHT22;66763;47.856;17.462;2023-03-30T17:23:16;23.60;44.50
33943;DHT22;66763;47.856;17.462;2023-03-30T17:25:42;23.60;44.50
33943;DHT22;66763;47.856;17.462;2023-03-30T17:28:09;23.60;44.40
33943;DHT22;66763;47.856;17.462;2023-03-30T17:30:39;23.60;44.50